Time;durP1;ratioP1;P1;durP2;ratioP2;P2;SDS_P1;SDS_P2;PMS_P1;PMS_P2;Temp;Humidity;BMP_temperature;BMP_pressure;BME280_temperature;BME280_humidity;BME280_pressure;Samples;Min_cycle;Max_cycle;Signal;HPM_P1;HPM_P2
2021/08/10 00:01:56;;;;;;;4.97;2.43;;;;;;;;;;5097627;28;20249;-65
2021/08/10 00:04:24;;;;;;;3.60;2.20;;;;;;;;;;5098507;28;20215;-65
2021/08/10 00:06:52;;;;;;;6.40;2.07;;;;;;;;;;5097789;28;20225;-65
2021/08/10 00:09:20;;;;;;;7.27;2.57;;;;;;;;;;5097912;28;20677;-65
2021/08/10 00:11:48;;;;;;;3.10;2.60;;;;;;;;;;5097244;28;20218;-65
2021/08/10 00:14:17;;;;;;;2.57;2.10;;;;;;;;;;5098012;28;20359;-65
2021/08/10 00:16:45;;;;;;;4.27;2.13;;;;;;;;;;5097500;28;20553;-65
2021/08/10 00:19:13;;;;;;;4.30;2.30;;;;;;;;;;5097585;28;20207;-65
2021/08/10 00:21:41;;;;;;;3.40;2.63;;;;;;;;;;5097708;28;20239;-65
2021/08/10 00:24:09;;;;;;;2.73;2.03;;;;;;;;;;5098066;28;20216;-65
2021/08/10 00:26:37;;;;;;;3.57;2.40;;;;;;;;;;5097263;28;20229;-65
2021/08/10 00:29:05;;;;;;;2.80;2.00;;;;;;;;;;5097514;28;20579;-65
2021/08/10 00:31:34;;;;;;;6.43;2.30;;;;;;;;;;5097415;28;20221;-65
2021/08/10 00:34:02;;;;;;;5.53;2.30;;;;;;;;;;5097805;28;20679;-65
2021/08/10 00:36:30;;;;;;;3.27;2.10;;;;;;;;;;5097606;28;20197;-65
2021/08/10 00:38:58;;;;;;;3.57;2.20;;;;;;;;;;5108731;28;20209;-65
2021/08/10 00:41:26;;;;;;;2.50;2.13;;;;;;;;;;5117434;28;20225;-65
2021/08/10 00:43:54;;;;;;;3.00;2.50;;;;;;;;;;5117200;28;20239;-65
2021/08/10 00:46:22;;;;;;;8.27;2.33;;;;;;;;;;5117354;28;20231;-65
2021/08/10 00:48:52;;;;;;;3.73;2.20;;;;;;;;;;5117779;28;20209;-65
2021/08/10 00:51:20;;;;;;;4.60;2.20;;;;;;;;;;5117554;28;20233;-65
2021/08/10 00:53:48;;;;;;;4.67;2.47;;;;;;;;;;5118214;28;20209;-65
2021/08/10 00:56:15;;;;;;;3.50;2.10;;;;;;;;;;5117825;28;20215;-65
2021/08/10 00:58:43;;;;;;;2.93;2.07;;;;;;;;;;5117105;28;20288;-65
2021/08/10 01:01:11;;;;;;;2.80;2.00;;;;;;;;;;5117610;28;20211;-65
2021/08/10 01:03:40;;;;;;;4.13;2.33;;;;;;;;;;5117559;28;20226;-65
2021/08/10 01:06:12;;;;;;;4.50;2.23;;;;;;;;;;5117110;28;20284;-65
2021/08/10 01:08:42;;;;;;;6.90;2.30;;;;;;;;;;5117636;28;20201;-65
2021/08/10 01:11:11;;;;;;;4.03;2.00;;;;;;;;;;5117479;28;20207;-65
2021/08/10 01:13:41;;;;;;;3.87;2.77;;;;;;;;;;5098338;28;20197;-65
2021/08/10 01:16:15;;;;;;;3.17;2.60;;;;;;;;;;5097005;28;20588;-65
2021/08/10 01:18:54;;;;;;;2.70;2.30;;;;;;;;;;5097148;28;20201;-65
2021/08/10 01:21:25;;;;;;;4.53;2.90;;;;;;;;;;5093362;28;20251;-65
2021/08/10 01:23:57;;;;;;;4.00;2.60;;;;;;;;;;5097735;28;20197;-65
2021/08/10 01:26:40;;;;;;;6.37;2.63;;;;;;;;;;5101155;28;20201;-65
2021/08/10 01:29:15;;;;;;;6.10;3.03;;;;;;;;;;5091348;28;20816;-65
2021/08/10 01:31:45;;;;;;;4.23;3.10;;;;;;;;;;5098953;28;20606;-65
2021/08/10 01:34:16;;;;;;;3.63;2.10;;;;;;;;;;5100569;28;20204;-65
2021/08/10 01:36:44;;;;;;;3.83;2.50;;;;;;;;;;5100521;28;20543;-65
2021/08/10 01:39:13;;;;;;;6.20;3.00;;;;;;;;;;5100563;28;20198;-65
2021/08/10 01:41:41;;;;;;;4.53;3.33;;;;;;;;;;5099790;28;20313;-65
2021/08/10 01:44:09;;;;;;;3.77;2.67;;;;;;;;;;5100546;28;20259;-65
2021/08/10 01:46:39;;;;;;;3.83;2.70;;;;;;;;;;5099949;28;20205;-65
2021/08/10 01:49:08;;;;;;;4.20;2.63;;;;;;;;;;5100197;28;20288;-65
2021/08/10 01:51:37;;;;;;;3.47;2.80;;;;;;;;;;5100280;28;20738;-65
2021/08/10 01:54:09;;;;;;;4.47;2.70;;;;;;;;;;5100436;28;20210;-65
2021/08/10 01:56:38;;;;;;;4.53;2.80;;;;;;;;;;5100025;28;20578;-65
2021/08/10 01:59:06;;;;;;;4.30;2.80;;;;;;;;;;5100272;28;20209;-65
2021/08/10 02:01:35;;;;;;;5.90;3.30;;;;;;;;;;5100200;28;20231;-65
2021/08/10 02:04:04;;;;;;;2.97;2.60;;;;;;;;;;5099952;28;20691;-65
2021/08/10 02:06:34;;;;;;;2.97;2.13;;;;;;;;;;5100166;28;20292;-65
2021/08/10 02:09:02;;;;;;;3.60;2.73;;;;;;;;;;5099883;28;20684;-65
2021/08/10 02:11:31;;;;;;;3.37;2.67;;;;;;;;;;5099661;28;20229;-65
2021/08/10 02:13:59;;;;;;;5.43;3.20;;;;;;;;;;5099882;28;20762;-65
2021/08/10 02:16:28;;;;;;;2.87;2.63;;;;;;;;;;5099728;28;20209;-65
2021/08/10 02:18:56;;;;;;;4.53;2.67;;;;;;;;;;5099655;28;20222;-65
2021/08/10 02:21:30;;;;;;;3.80;2.90;;;;;;;;;;5100088;28;20229;-65
2021/08/10 02:24:02;;;;;;;3.73;2.60;;;;;;;;;;5100090;28;20211;-65
2021/08/10 02:26:31;;;;;;;4.87;2.97;;;;;;;;;;5099647;28;20223;-65
2021/08/10 02:28:59;;;;;;;4.57;2.60;;;;;;;;;;5099650;28;20222;-65
2021/08/10 02:31:28;;;;;;;4.30;3.03;;;;;;;;;;5099490;28;20235;-65
2021/08/10 02:33:57;;;;;;;3.93;2.60;;;;;;;;;;5099642;28;20216;-65
2021/08/10 02:36:29;;;;;;;6.47;3.20;;;;;;;;;;5099714;28;20292;-65
2021/08/10 02:38:58;;;;;;;2.93;2.63;;;;;;;;;;5099615;28;20205;-65
2021/08/10 02:41:28;;;;;;;3.83;2.53;;;;;;;;;;5099599;28;20703;-65
2021/08/10 02:43:56;;;;;;;4.40;3.33;;;;;;;;;;5099137;28;20243;-65
2021/08/10 02:46:23;;;;;;;3.60;2.73;;;;;;;;;;5099378;28;20209;-65
2021/08/10 02:48:51;;;;;;;6.63;2.73;;;;;;;;;;5099666;28;20231;-65
2021/08/10 02:51:19;;;;;;;4.23;2.97;;;;;;;;;;5098855;28;20718;-65
2021/08/10 02:53:47;;;;;;;3.73;2.93;;;;;;;;;;5099239;28;20206;-65
2021/08/10 02:56:17;;;;;;;4.73;3.33;;;;;;;;;;5099459;28;20557;-65
2021/08/10 02:58:48;;;;;;;4.97;3.87;;;;;;;;;;5098935;28;20205;-65
2021/08/10 03:01:20;;;;;;;4.63;2.80;;;;;;;;;;5099086;28;20683;-65
2021/08/10 03:03:48;;;;;;;5.93;3.40;;;;;;;;;;5099288;28;20206;-65
2021/08/10 03:06:16;;;;;;;6.00;3.57;;;;;;;;;;5099104;28;20291;-65
2021/08/10 03:08:45;;;;;;;5.97;3.10;;;;;;;;;;5098993;28;20236;-65
2021/08/10 03:11:14;;;;;;;6.07;2.93;;;;;;;;;;5098695;28;20580;-65
2021/08/10 03:13:43;;;;;;;7.37;3.07;;;;;;;;;;5098138;28;20661;-65
2021/08/10 03:16:13;;;;;;;5.57;3.20;;;;;;;;;;5098885;28;20205;-65
2021/08/10 03:18:44;;;;;;;5.27;2.93;;;;;;;;;;5098532;28;20201;-65
2021/08/10 03:21:12;;;;;;;4.27;3.00;;;;;;;;;;5098741;28;20216;-65
2021/08/10 03:23:41;;;;;;;3.03;2.73;;;;;;;;;;5098570;28;20212;-65
2021/08/10 03:26:11;;;;;;;4.03;2.87;;;;;;;;;;5098433;28;20255;-65
2021/08/10 03:28:41;;;;;;;7.10;3.43;;;;;;;;;;5098218;28;20231;-65
2021/08/10 03:31:10;;;;;;;4.43;3.20;;;;;;;;;;5098193;28;20224;-65
2021/08/10 03:33:40;;;;;;;5.97;3.87;;;;;;;;;;5098608;28;20202;-65
2021/08/10 03:36:09;;;;;;;4.67;3.67;;;;;;;;;;5098151;28;20209;-65
2021/08/10 03:38:37;;;;;;;4.03;3.27;;;;;;;;;;5098275;28;20204;-65
2021/08/10 03:41:06;;;;;;;6.43;4.20;;;;;;;;;;5098256;28;20205;-65
2021/08/10 03:43:35;;;;;;;7.67;4.93;;;;;;;;;;5097773;28;20233;-65
2021/08/10 03:46:03;;;;;;;5.67;3.97;;;;;;;;;;5098331;28;20288;-65
2021/08/10 03:48:34;;;;;;;6.53;3.97;;;;;;;;;;5097735;28;20265;-65
2021/08/10 03:51:04;;;;;;;4.57;3.83;;;;;;;;;;5098014;28;20206;-65
2021/08/10 03:53:34;;;;;;;5.00;3.63;;;;;;;;;;5097941;28;20292;-65
2021/08/10 03:56:03;;;;;;;6.00;3.60;;;;;;;;;;5097955;28;20205;-65
2021/08/10 03:58:33;;;;;;;8.20;3.70;;;;;;;;;;5097515;28;20564;-65
2021/08/10 04:01:01;;;;;;;7.97;3.60;;;;;;;;;;5098458;28;20209;-65
2021/08/10 04:03:31;;;;;;;5.57;3.53;;;;;;;;;;5099284;28;20205;-65
2021/08/10 04:05:59;;;;;;;5.43;3.17;;;;;;;;;;5098080;28;20635;-65
2021/08/10 04:08:30;;;;;;;5.90;3.27;;;;;;;;;;5097828;28;20237;-65
2021/08/10 04:10:58;;;;;;;5.80;3.03;;;;;;;;;;5097954;28;20292;-65
2021/08/10 04:13:26;;;;;;;4.07;3.40;;;;;;;;;;5097408;28;20292;-65
2021/08/10 04:15:55;;;;;;;7.23;3.77;;;;;;;;;;5097654;28;20212;-65
2021/08/10 04:18:23;;;;;;;4.30;3.10;;;;;;;;;;5097528;28;20205;-65
2021/08/10 04:20:52;;;;;;;5.27;3.20;;;;;;;;;;5098049;28;20212;-65
2021/08/10 04:23:20;;;;;;;4.97;3.70;;;;;;;;;;5097707;28;20221;-65
2021/08/10 04:25:49;;;;;;;7.00;3.93;;;;;;;;;;5097821;28;20213;-65
2021/08/10 04:28:17;;;;;;;6.70;3.83;;;;;;;;;;5097455;28;20225;-65
2021/08/10 04:30:46;;;;;;;4.30;3.30;;;;;;;;;;5097534;28;20657;-65
2021/08/10 04:33:14;;;;;;;7.23;3.27;;;;;;;;;;5097680;28;20251;-65
2021/08/10 04:35:42;;;;;;;5.80;3.53;;;;;;;;;;5097388;28;20641;-65
2021/08/10 04:38:10;;;;;;;4.63;3.53;;;;;;;;;;5097635;28;20288;-65
2021/08/10 04:40:38;;;;;;;4.17;3.30;;;;;;;;;;5097373;28;20579;-65
2021/08/10 04:43:07;;;;;;;3.57;3.03;;;;;;;;;;5096880;28;20247;-65
2021/08/10 04:45:35;;;;;;;4.87;3.70;;;;;;;;;;5097561;28;20209;-65
2021/08/10 04:48:03;;;;;;;5.53;3.97;;;;;;;;;;5097183;28;20213;-65
2021/08/10 04:50:31;;;;;;;7.43;3.50;;;;;;;;;;5097308;28;20226;-65
2021/08/10 04:52:59;;;;;;;6.63;3.50;;;;;;;;;;5097342;28;20225;-65
2021/08/10 04:55:27;;;;;;;4.07;3.37;;;;;;;;;;5097393;28;20211;-65
2021/08/10 04:57:55;;;;;;;5.33;3.73;;;;;;;;;;5096858;28;20216;-65
2021/08/10 05:00:25;;;;;;;4.73;3.30;;;;;;;;;;5099880;28;20664;-65
2021/08/10 05:02:53;;;;;;;7.20;3.97;;;;;;;;;;5101122;28;20225;-65
2021/08/10 05:05:22;;;;;;;6.93;3.93;;;;;;;;;;5101270;28;20208;-65
2021/08/10 05:07:50;;;;;;;6.30;3.73;;;;;;;;;;5101336;28;20229;-65
2021/08/10 05:10:18;;;;;;;7.33;3.70;;;;;;;;;;5101151;28;20243;-65
2021/08/10 05:12:46;;;;;;;5.30;3.60;;;;;;;;;;5100549;28;20225;-65
2021/08/10 05:15:15;;;;;;;6.87;4.07;;;;;;;;;;5101135;28;20660;-65
2021/08/10 05:17:44;;;;;;;9.37;3.87;;;;;;;;;;5100770;28;20672;-65
2021/08/10 05:20:12;;;;;;;5.43;3.43;;;;;;;;;;5099003;28;20198;-65
2021/08/10 05:22:42;;;;;;;9.70;4.17;;;;;;;;;;5101330;28;20232;-65
2021/08/10 05:25:10;;;;;;;6.27;4.10;;;;;;;;;;5102038;28;20202;-65
2021/08/10 05:27:38;;;;;;;5.07;4.07;;;;;;;;;;5101345;28;20299;-65
2021/08/10 05:30:07;;;;;;;5.40;4.00;;;;;;;;;;5100488;28;20583;-65
2021/08/10 05:32:34;;;;;;;7.77;4.20;;;;;;;;;;5100677;28;20226;-65
2021/08/10 05:35:24;;;;;;;5.13;3.47;;;;;;;;;;5100782;28;20213;-65
2021/08/10 05:37:52;;;;;;;7.10;4.87;;;;;;;;;;5100521;28;20225;-64
2021/08/10 05:40:20;;;;;;;4.83;3.83;;;;;;;;;;5100897;28;20212;-65
2021/08/10 05:42:48;;;;;;;5.90;4.00;;;;;;;;;;5100119;28;20249;-66
2021/08/10 05:45:16;;;;;;;6.97;3.80;;;;;;;;;;5100289;28;20209;-67
2021/08/10 05:47:44;;;;;;;8.87;4.77;;;;;;;;;;5100215;28;20579;-67
2021/08/10 05:50:12;;;;;;;8.33;4.30;;;;;;;;;;5100502;28;20243;-65
2021/08/10 05:52:42;;;;;;;6.27;4.20;;;;;;;;;;5100583;28;20228;-66
2021/08/10 05:55:10;;;;;;;5.03;4.33;;;;;;;;;;5100622;28;20645;-66
2021/08/10 05:57:38;;;;;;;8.33;5.20;;;;;;;;;;5100196;28;20664;-66
2021/08/10 06:00:06;;;;;;;6.50;4.47;;;;;;;;;;5100523;28;20645;-66
2021/08/10 06:02:35;;;;;;;7.37;4.60;;;;;;;;;;5100131;28;20222;-66
2021/08/10 06:05:03;;;;;;;5.10;4.57;;;;;;;;;;5100357;28;20649;-66
2021/08/10 06:07:31;;;;;;;5.80;4.43;;;;;;;;;;5099813;28;20637;-66
2021/08/10 06:10:01;;;;;;;9.73;4.63;;;;;;;;;;5099591;28;20221;-65
2021/08/10 06:12:29;;;;;;;6.40;4.70;;;;;;;;;;5099630;28;20233;-64
2021/08/10 06:14:57;;;;;;;10.73;4.37;;;;;;;;;;5099991;28;20209;-64
2021/08/10 06:17:25;;;;;;;10.60;5.20;;;;;;;;;;5100052;28;20206;-65
2021/08/10 06:19:53;;;;;;;8.00;5.10;;;;;;;;;;5099891;28;20198;-64
2021/08/10 06:22:20;;;;;;;8.90;4.87;;;;;;;;;;5099960;28;20230;-65
2021/08/10 06:24:48;;;;;;;7.20;5.07;;;;;;;;;;5099915;28;20208;-66
2021/08/10 06:27:18;;;;;;;12.13;5.63;;;;;;;;;;5100266;28;20216;-66
2021/08/10 06:29:46;;;;;;;7.03;5.27;;;;;;;;;;5099764;28;20236;-64
2021/08/10 06:32:14;;;;;;;9.47;5.43;;;;;;;;;;5099553;28;20229;-64
2021/08/10 06:34:41;;;;;;;11.87;5.27;;;;;;;;;;5099611;28;20665;-66
2021/08/10 06:37:09;;;;;;;7.27;4.40;;;;;;;;;;5099671;28;20206;-67
2021/08/10 06:39:37;;;;;;;11.90;5.47;;;;;;;;;;5099569;28;20202;-67
2021/08/10 06:42:05;;;;;;;10.00;5.10;;;;;;;;;;5099193;28;20245;-66
2021/08/10 06:44:35;;;;;;;6.20;4.63;;;;;;;;;;5099401;28;20213;-67
2021/08/10 06:47:03;;;;;;;7.77;4.90;;;;;;;;;;5099215;28;20205;-67
2021/08/10 06:49:31;;;;;;;7.73;4.93;;;;;;;;;;5098997;28;20667;-67
2021/08/10 06:51:59;;;;;;;11.77;6.27;;;;;;;;;;5098811;28;20780;-66
2021/08/10 06:54:27;;;;;;;7.07;5.00;;;;;;;;;;5099121;28;20778;-67
2021/08/10 06:56:55;;;;;;;10.23;5.10;;;;;;;;;;5099050;28;20201;-66
2021/08/10 06:59:22;;;;;;;8.83;5.43;;;;;;;;;;5099270;28;20206;-66
2021/08/10 07:01:52;;;;;;;6.27;4.77;;;;;;;;;;5098660;28;20696;-66
2021/08/10 07:04:20;;;;;;;10.23;4.87;;;;;;;;;;5098806;28;20255;-66
2021/08/10 07:06:48;;;;;;;7.00;4.60;;;;;;;;;;5099328;28;20691;-67
2021/08/10 07:09:16;;;;;;;8.10;4.30;;;;;;;;;;5098709;28;20293;-66
2021/08/10 07:11:44;;;;;;;7.90;5.23;;;;;;;;;;5098244;28;20230;-66
2021/08/10 07:14:12;;;;;;;7.27;4.70;;;;;;;;;;5085464;28;20212;-67
2021/08/10 07:16:41;;;;;;;7.33;4.53;;;;;;;;;;5098764;28;20222;-66
2021/08/10 07:19:10;;;;;;;10.50;5.00;;;;;;;;;;5098489;28;20683;-67
2021/08/10 07:21:38;;;;;;;9.67;6.07;;;;;;;;;;5098122;28;20228;-66
2021/08/10 07:24:06;;;;;;;7.83;5.17;;;;;;;;;;5098565;28;20205;-66
2021/08/10 07:26:35;;;;;;;7.07;5.40;;;;;;;;;;5098257;28;20214;-66
2021/08/10 07:29:03;;;;;;;5.43;4.53;;;;;;;;;;5098852;28;20219;-66
2021/08/10 07:31:31;;;;;;;6.93;5.47;;;;;;;;;;5098403;28;20240;-66
2021/08/10 07:33:59;;;;;;;8.50;5.13;;;;;;;;;;5098541;28;20562;-66
2021/08/10 07:36:28;;;;;;;7.30;4.80;;;;;;;;;;5098631;28;20205;-64
2021/08/10 07:38:56;;;;;;;5.20;4.50;;;;;;;;;;5098232;28;20205;-67
2021/08/10 07:41:24;;;;;;;12.13;5.33;;;;;;;;;;5098048;28;20217;-66
2021/08/10 07:43:52;;;;;;;6.60;5.00;;;;;;;;;;5098161;28;20234;-67
2021/08/10 07:46:20;;;;;;;9.67;5.13;;;;;;;;;;5098255;28;20669;-66
2021/08/10 07:48:50;;;;;;;8.40;5.13;;;;;;;;;;5098000;28;20201;-66
2021/08/10 07:51:18;;;;;;;4.73;4.10;;;;;;;;;;5097799;28;20221;-67
2021/08/10 07:53:47;;;;;;;8.87;5.20;;;;;;;;;;5098387;28;20201;-66
2021/08/10 07:56:15;;;;;;;6.33;4.23;;;;;;;;;;5097907;28;20209;-64
2021/08/10 07:58:43;;;;;;;7.63;4.60;;;;;;;;;;5098599;28;20206;-65
2021/08/10 08:01:11;;;;;;;10.47;4.37;;;;;;;;;;5098606;28;20201;-66
2021/08/10 08:03:39;;;;;;;9.80;5.17;;;;;;;;;;5098286;28;20208;-66
2021/08/10 08:06:10;;;;;;;8.23;4.50;;;;;;;;;;5097561;28;20209;-66
2021/08/10 08:08:38;;;;;;;6.83;4.77;;;;;;;;;;5098107;28;20248;-66
2021/08/10 08:11:08;;;;;;;8.33;3.50;;;;;;;;;;5097943;28;20279;-65
2021/08/10 08:13:35;;;;;;;7.70;5.17;;;;;;;;;;5097496;28;20268;-66
2021/08/10 08:16:04;;;;;;;14.10;4.60;;;;;;;;;;5097675;28;20210;-65
2021/08/10 08:18:32;;;;;;;9.00;4.80;;;;;;;;;;5097675;28;20253;-64
2021/08/10 08:21:00;;;;;;;7.30;3.90;;;;;;;;;;5097635;28;20717;-64
2021/08/10 08:23:28;;;;;;;7.87;3.90;;;;;;;;;;5097606;28;20216;-65
2021/08/10 08:25:56;;;;;;;6.67;3.67;;;;;;;;;;5097676;28;20735;-64
2021/08/10 08:28:25;;;;;;;6.37;4.10;;;;;;;;;;5097483;28;20211;-64
2021/08/10 08:30:53;;;;;;;8.53;3.97;;;;;;;;;;5097645;28;20239;-66
2021/08/10 08:33:21;;;;;;;7.60;4.33;;;;;;;;;;5097072;28;20261;-66
2021/08/10 08:35:49;;;;;;;5.80;4.57;;;;;;;;;;5097640;28;20213;-66
2021/08/10 08:38:19;;;;;;;5.03;3.50;;;;;;;;;;5097659;28;20207;-64
2021/08/10 08:40:48;;;;;;;5.27;3.47;;;;;;;;;;5097618;28;20285;-64
2021/08/10 08:43:17;;;;;;;5.87;3.27;;;;;;;;;;5096883;28;20254;-65
2021/08/10 08:45:47;;;;;;;7.17;4.60;;;;;;;;;;5097230;28;20675;-66
2021/08/10 08:48:15;;;;;;;8.30;3.97;;;;;;;;;;5097262;28;20727;-66
2021/08/10 08:50:44;;;;;;;8.13;3.97;;;;;;;;;;5097471;28;20231;-66
2021/08/10 08:53:14;;;;;;;9.63;3.57;;;;;;;;;;5097571;28;20221;-66
2021/08/10 08:55:42;;;;;;;5.33;3.67;;;;;;;;;;5097001;28;20665;-65
2021/08/10 08:58:10;;;;;;;3.47;2.67;;;;;;;;;;5097069;28;20549;-66
2021/08/10 09:00:39;;;;;;;6.17;3.50;;;;;;;;;;5097536;28;20288;-66
2021/08/10 09:03:08;;;;;;;6.20;3.37;;;;;;;;;;5097385;28;20228;-66
2021/08/10 09:05:39;;;;;;;4.07;2.97;;;;;;;;;;5097229;28;20203;-65
2021/08/10 09:08:28;;;;;;;3.63;3.10;;;;;;;;;;5097488;28;20207;-65
2021/08/10 09:10:56;;;;;;;10.30;3.30;;;;;;;;;;5092513;28;20309;-65
2021/08/10 09:13:24;;;;;;;3.83;3.07;;;;;;;;;;5096783;28;20200;-65
2021/08/10 09:15:52;;;;;;;4.73;3.33;;;;;;;;;;5097309;28;20291;-66
2021/08/10 09:18:22;;;;;;;5.07;2.80;;;;;;;;;;5097061;28;20205;-66
2021/08/10 09:21:00;;;;;;;5.10;2.90;;;;;;;;;;5097149;28;20301;-66
2021/08/10 09:23:42;;;;;;;4.47;2.90;;;;;;;;;;5097161;28;20208;-65
2021/08/10 09:26:11;;;;;;;4.50;2.67;;;;;;;;;;5096968;28;20205;-66
2021/08/10 09:28:39;;;;;;;4.87;3.30;;;;;;;;;;5097187;28;20267;-66
2021/08/10 09:31:40;;;;;;;3.87;2.80;;;;;;;;;;5096768;28;20225;-66
2021/08/10 09:34:18;;;;;;;4.47;3.33;;;;;;;;;;5034727;28;20204;-66
2021/08/10 09:36:47;;;;;;;6.50;3.17;;;;;;;;;;5034521;28;20208;-64
2021/08/10 09:39:15;;;;;;;5.40;3.27;;;;;;;;;;5067208;28;20734;-64
2021/08/10 09:41:58;;;;;;;4.97;3.27;;;;;;;;;;5096417;28;20264;-64
2021/08/10 09:44:25;;;;;;;7.07;3.30;;;;;;;;;;5096823;28;20293;-64
2021/08/10 09:46:53;;;;;;;6.20;3.37;;;;;;;;;;5100014;28;20576;-65
2021/08/10 09:49:23;;;;;;;5.23;3.33;;;;;;;;;;5100184;28;20210;-65
2021/08/10 09:51:52;;;;;;;3.73;3.20;;;;;;;;;;5100107;28;20259;-66
2021/08/10 09:54:21;;;;;;;6.63;3.50;;;;;;;;;;5100386;28;20213;-66
2021/08/10 09:56:51;;;;;;;4.73;3.07;;;;;;;;;;5100043;28;20210;-66
2021/08/10 09:59:19;;;;;;;4.87;3.37;;;;;;;;;;5100300;28;20203;-66
2021/08/10 10:01:48;;;;;;;4.47;3.00;;;;;;;;;;5099863;28;20585;-66
2021/08/10 10:04:17;;;;;;;4.83;3.23;;;;;;;;;;5100272;28;20208;-66
2021/08/10 10:06:47;;;;;;;5.03;3.10;;;;;;;;;;5100288;28;20205;-66
2021/08/10 10:09:15;;;;;;;5.80;2.73;;;;;;;;;;5100103;28;20212;-66
2021/08/10 10:11:44;;;;;;;9.17;3.33;;;;;;;;;;5099181;28;20717;-66
2021/08/10 10:14:12;;;;;;;5.13;3.33;;;;;;;;;;5086349;28;20210;-64
2021/08/10 10:16:42;;;;;;;4.50;3.10;;;;;;;;;;5099878;28;20207;-66
2021/08/10 10:19:12;;;;;;;5.03;3.63;;;;;;;;;;5099944;28;20662;-66
2021/08/10 10:21:41;;;;;;;7.67;3.87;;;;;;;;;;5099906;28;20223;-66
2021/08/10 10:24:12;;;;;;;5.77;3.13;;;;;;;;;;5099983;28;20212;-66
2021/08/10 10:26:41;;;;;;;4.70;2.93;;;;;;;;;;5099191;28;20677;-66
2021/08/10 10:29:10;;;;;;;6.80;3.33;;;;;;;;;;5100133;28;20217;-66
2021/08/10 10:31:38;;;;;;;5.57;3.70;;;;;;;;;;5099135;28;20232;-66
2021/08/10 10:34:06;;;;;;;7.10;3.50;;;;;;;;;;5099659;28;20213;-66
2021/08/10 10:36:35;;;;;;;5.50;3.07;;;;;;;;;;5099275;28;20229;-66
2021/08/10 10:39:03;;;;;;;5.73;3.30;;;;;;;;;;5099622;28;20218;-65
2021/08/10 10:41:34;;;;;;;5.67;3.53;;;;;;;;;;5099068;28;20227;-66
2021/08/10 10:44:02;;;;;;;5.73;3.30;;;;;;;;;;5099262;28;20242;-66
2021/08/10 10:46:31;;;;;;;3.40;3.10;;;;;;;;;;5099325;28;20222;-66
2021/08/10 10:49:00;;;;;;;5.00;3.43;;;;;;;;;;5099393;28;20207;-66
2021/08/10 10:51:32;;;;;;;4.73;3.37;;;;;;;;;;5099158;28;20229;-66
2021/08/10 10:54:22;;;;;;;4.83;2.87;;;;;;;;;;5099048;28;20574;-66
2021/08/10 10:56:52;;;;;;;6.73;3.40;;;;;;;;;;5098009;28;20291;-66
2021/08/10 10:59:35;;;;;;;2.90;2.50;;;;;;;;;;5098878;28;20212;-66
2021/08/10 11:02:16;;;;;;;4.30;2.77;;;;;;;;;;5096760;28;20232;-66
2021/08/10 11:05:03;;;;;;;7.33;3.40;;;;;;;;;;5099160;28;20267;-66
2021/08/10 11:07:36;;;;;;;8.57;3.20;;;;;;;;;;5098717;28;20814;-64
2021/08/10 11:10:04;;;;;;;4.10;3.33;;;;;;;;;;5098631;28;20642;-66
2021/08/10 11:12:44;;;;;;;4.43;3.10;;;;;;;;;;5098265;28;20232;-67
2021/08/10 11:15:13;;;;;;;5.93;3.20;;;;;;;;;;5098600;28;20207;-64
2021/08/10 11:17:41;;;;;;;3.53;3.13;;;;;;;;;;5098749;28;20258;-67
2021/08/10 11:20:22;;;;;;;3.63;2.70;;;;;;;;;;5095105;28;20574;-67
2021/08/10 11:22:50;;;;;;;9.23;3.13;;;;;;;;;;5098671;28;20704;-66
2021/08/10 11:25:22;;;;;;;4.40;3.00;;;;;;;;;;5098401;28;20208;-67
2021/08/10 11:27:51;;;;;;;3.50;3.23;;;;;;;;;;5097972;28;20210;-67
2021/08/10 11:30:38;;;;;;;4.23;3.33;;;;;;;;;;5098401;28;20212;-67
2021/08/10 11:33:06;;;;;;;4.60;3.00;;;;;;;;;;5087926;28;20269;-67
2021/08/10 11:35:34;;;;;;;5.17;3.50;;;;;;;;;;5098595;28;20212;-67
2021/08/10 11:38:07;;;;;;;4.47;3.00;;;;;;;;;;5098647;28;20247;-67
2021/08/10 11:40:48;;;;;;;5.70;3.00;;;;;;;;;;5098600;28;20205;-67
2021/08/10 11:43:18;;;;;;;6.03;3.00;;;;;;;;;;5097846;28;20231;-67
2021/08/10 11:45:46;;;;;;;6.47;3.47;;;;;;;;;;5098362;28;20228;-67
2021/08/10 11:48:14;;;;;;;7.23;3.50;;;;;;;;;;5098369;28;20212;-66
2021/08/10 11:50:42;;;;;;;4.70;3.50;;;;;;;;;;5098063;28;20405;-67
2021/08/10 11:53:10;;;;;;;4.90;2.87;;;;;;;;;;5098212;28;20225;-66
2021/08/10 11:55:38;;;;;;;5.40;2.90;;;;;;;;;;5097936;28;20303;-67
2021/08/10 11:58:07;;;;;;;5.63;3.10;;;;;;;;;;5097922;28;20209;-67
2021/08/10 12:00:37;;;;;;;4.73;2.70;;;;;;;;;;5098137;28;20638;-66
2021/08/10 12:03:05;;;;;;;4.80;2.67;;;;;;;;;;5098888;28;20254;-67
2021/08/10 12:05:34;;;;;;;5.07;3.27;;;;;;;;;;5100521;28;20218;-66
2021/08/10 12:08:02;;;;;;;4.97;2.97;;;;;;;;;;5098750;28;20212;-66
2021/08/10 12:10:31;;;;;;;3.83;2.93;;;;;;;;;;5098482;28;20219;-66
2021/08/10 12:13:00;;;;;;;3.73;3.00;;;;;;;;;;5097412;28;20227;-67
2021/08/10 12:15:45;;;;;;;4.47;3.23;;;;;;;;;;5097640;28;20240;-67
2021/08/10 12:18:14;;;;;;;3.50;3.20;;;;;;;;;;5097188;28;20290;-66
2021/08/10 12:20:42;;;;;;;5.83;3.00;;;;;;;;;;5097569;28;20571;-67
2021/08/10 12:23:11;;;;;;;4.73;2.87;;;;;;;;;;5097556;28;20594;-67
2021/08/10 12:25:40;;;;;;;3.33;2.97;;;;;;;;;;5097799;28;20209;-66
2021/08/10 12:28:09;;;;;;;5.47;3.87;;;;;;;;;;5097015;28;20209;-67
2021/08/10 12:30:37;;;;;;;4.33;3.10;;;;;;;;;;5097727;28;20210;-67
2021/08/10 12:33:17;;;;;;;3.03;2.43;;;;;;;;;;5097098;28;20619;-66
2021/08/10 12:36:02;;;;;;;7.77;3.17;;;;;;;;;;5097668;28;20208;-66
2021/08/10 12:38:31;;;;;;;5.00;2.43;;;;;;;;;;5097673;28;20230;-66
2021/08/10 12:40:59;;;;;;;3.57;2.93;;;;;;;;;;5096843;28;20584;-67
2021/08/10 12:43:27;;;;;;;5.30;2.77;;;;;;;;;;5097160;28;20230;-66
2021/08/10 12:45:55;;;;;;;6.33;2.60;;;;;;;;;;5097315;28;20211;-67
2021/08/10 12:48:26;;;;;;;2.53;2.30;;;;;;;;;;5097305;28;20216;-66
2021/08/10 12:50:54;;;;;;;3.73;2.50;;;;;;;;;;5097366;28;20620;-66
2021/08/10 12:53:26;;;;;;;2.80;2.27;;;;;;;;;;5097323;28;20232;-67
2021/08/10 12:55:54;;;;;;;3.27;2.57;;;;;;;;;;5097245;28;20205;-67
2021/08/10 12:58:22;;;;;;;4.57;2.10;;;;;;;;;;5097629;28;20210;-66
2021/08/10 13:00:56;;;;;;;4.53;2.20;;;;;;;;;;5096964;28;20214;-66
2021/08/10 13:03:26;;;;;;;3.40;2.53;;;;;;;;;;5097018;28;20207;-67
2021/08/10 13:05:55;;;;;;;3.97;3.20;;;;;;;;;;5096924;28;20242;-67
2021/08/10 13:08:23;;;;;;;4.43;2.60;;;;;;;;;;5097365;28;20206;-66
2021/08/10 13:10:51;;;;;;;2.70;2.17;;;;;;;;;;5097275;28;20218;-66
2021/08/10 13:13:23;;;;;;;2.90;2.27;;;;;;;;;;5096710;28;20329;-67
2021/08/10 13:15:52;;;;;;;7.40;2.77;;;;;;;;;;5097260;28;20206;-67
2021/08/10 13:18:23;;;;;;;6.73;2.43;;;;;;;;;;5096790;28;20207;-66
2021/08/10 13:20:54;;;;;;;7.20;2.50;;;;;;;;;;5098969;28;20212;-67
2021/08/10 13:23:22;;;;;;;4.13;2.57;;;;;;;;;;5100819;28;20360;-67
2021/08/10 13:25:54;;;;;;;4.67;2.80;;;;;;;;;;5101021;28;20210;-66
2021/08/10 13:28:22;;;;;;;7.57;2.30;;;;;;;;;;5100603;28;20592;-67
2021/08/10 13:30:50;;;;;;;5.13;2.37;;;;;;;;;;5100937;28;20207;-67
2021/08/10 13:33:21;;;;;;;4.87;2.67;;;;;;;;;;5100772;28;20236;-67
2021/08/10 13:35:50;;;;;;;2.70;2.50;;;;;;;;;;5100633;28;20298;-67
2021/08/10 13:38:19;;;;;;;3.03;2.27;;;;;;;;;;5100653;28;20211;-66
2021/08/10 13:40:50;;;;;;;4.23;2.57;;;;;;;;;;5097497;28;20287;-67
2021/08/10 13:43:19;;;;;;;3.80;2.30;;;;;;;;;;5099971;28;20657;-67
2021/08/10 13:45:47;;;;;;;4.77;2.57;;;;;;;;;;5100442;28;20200;-67
2021/08/10 13:48:31;;;;;;;3.57;2.03;;;;;;;;;;5090033;28;20259;-66
2021/08/10 13:50:59;;;;;;;2.77;2.53;;;;;;;;;;5100453;28;20199;-64
2021/08/10 13:53:29;;;;;;;4.47;2.30;;;;;;;;;;5100568;28;20237;-67
2021/08/10 13:55:57;;;;;;;2.47;2.27;;;;;;;;;;5097417;28;20222;-67
2021/08/10 13:58:24;;;;;;;2.20;2.00;;;;;;;;;;5100374;28;20678;-67
2021/08/10 14:00:52;;;;;;;2.70;2.10;;;;;;;;;;5099850;28;20287;-67
2021/08/10 14:03:21;;;;;;;3.83;2.77;;;;;;;;;;5099991;28;20751;-65
2021/08/10 14:05:49;;;;;;;3.20;2.93;;;;;;;;;;5099973;28;20209;-65
2021/08/10 14:08:17;;;;;;;2.53;2.10;;;;;;;;;;5100167;28;20210;-66
2021/08/10 14:10:46;;;;;;;2.63;1.97;;;;;;;;;;5100302;28;20217;-66
2021/08/10 14:13:14;;;;;;;3.13;2.20;;;;;;;;;;5099338;28;20226;-66
2021/08/10 14:15:44;;;;;;;2.73;2.30;;;;;;;;;;5100164;28;20219;-65
2021/08/10 14:18:12;;;;;;;6.23;2.53;;;;;;;;;;5099775;28;20214;-66
2021/08/10 14:21:00;;;;;;;3.43;2.07;;;;;;;;;;5100016;28;20214;-66
2021/08/10 14:23:28;;;;;;;5.23;2.30;;;;;;;;;;5099904;28;20280;-65
2021/08/10 14:25:57;;;;;;;6.23;2.83;;;;;;;;;;5099645;28;20208;-66
2021/08/10 14:28:25;;;;;;;3.43;2.23;;;;;;;;;;5099633;28;20233;-66
2021/08/10 14:31:01;;;;;;;2.67;2.23;;;;;;;;;;5099135;28;20210;-66
2021/08/10 14:33:29;;;;;;;3.00;2.27;;;;;;;;;;5099668;28;20207;-66
2021/08/10 14:35:57;;;;;;;2.90;2.20;;;;;;;;;;5099846;28;20286;-64
2021/08/10 14:38:25;;;;;;;2.70;2.10;;;;;;;;;;5099738;28;20213;-66
2021/08/10 14:40:53;;;;;;;4.10;2.10;;;;;;;;;;5099063;28;20205;-64
2021/08/10 14:43:22;;;;;;;3.40;2.43;;;;;;;;;;5099310;28;20240;-64
2021/08/10 14:45:50;;;;;;;6.10;2.23;;;;;;;;;;5099119;28;20232;-64
2021/08/10 14:48:18;;;;;;;2.57;2.37;;;;;;;;;;5099514;28;20306;-64
2021/08/10 14:50:46;;;;;;;3.53;2.40;;;;;;;;;;5099486;28;20243;-66
2021/08/10 14:53:14;;;;;;;2.97;1.90;;;;;;;;;;5099115;28;20618;-66
2021/08/10 14:55:42;;;;;;;4.47;2.73;;;;;;;;;;5099240;28;20225;-66
2021/08/10 14:58:10;;;;;;;3.83;2.20;;;;;;;;;;5099051;28;20292;-66